Terminal Aerodrome Forecast
Issued by NWS

Current Version | Previous Version | Graphics & Text | Print | Product List | Glossary On
Versions: 1 2 3 4 5 6 7 8 9 10 11 12 13 14 15 16 17 18
000
FTUS41 KPBZ 240520
TAFHLG
TAF
KHLG 240520Z 2406/2506 00000KT P6SM SCT250
     FM241000 00000KT 5SM BR SCT250
     FM241400 16003KT P6SM SCT250
     FM241500 22004KT P6SM SCT040=

USA.gov is the U.S. government's official web portal to all federal, state and local government web resources and services.